Sault Ste Marie, Michigan
Current Conditions -  °F | °C
As of 7:55 AM on Friday 19 Dec 2014 (Local Time) from KANJ Reporting Station
Clear Clear  
Wind Chill:   Ceiling: Unl
Heat Index:   Visibility: 10mi
Dew Point:   Wind: 0mph
Humidity: 76%   Direction: NA
Pressure: 30.3"   Gusts: NA
Location:  46.48°N, 84.37°W
Report Text: KANJ 191255Z AUTO 00000KT 10SM CLR M13/M17 A3030 RMK AO2 PRESRR SLP273 I1000 T11331167
Loading
Personal Weather Stations






























Interactive Weather Map New forecast layout! Learn more

10-Day Weather Forecast

Advertisements
Track Severe Weather on mobile